Ariel, Israel
Current Conditions -  °F | °C
As of 2:50 PM on Monday 24 Nov 2014 (Local Time) from LLHA Reporting Station
Scattered Clouds Scattered Clouds  
Wind Chill: 64°   Ceiling: Unl
Heat Index: 64°   Visibility: 6mi
Dew Point: 48°   Wind: 7mph
Humidity: 56%   Direction: 180°S
Pressure: 29.88"   Gusts: NA
Location:  32.47°N, 35.13°E
Report Text: LLHA 241150Z 18006KT 150V230 9999 SCT030 18/09 Q1012
Loading
Personal Weather Stations






























Interactive Weather Map New forecast layout! Learn more

10-Day Weather Forecast

Advertisements
Track Severe Weather on mobile